Time;durP1;ratioP1;P1;durP2;ratioP2;P2;SDS_P1;SDS_P2;PMS_P1;PMS_P2;Temp;Humidity;BMP_temperature;BMP_pressure;BME280_temperature;BME280_humidity;BME280_pressure;Samples;Min_cycle;Max_cycle;Signal;HPM_P1;HPM_P2
2021/06/02 00:02:10;;;;;;;13.75;5.18;;;19.00;99.90;;;;;;5045962;28;20025;-78
2021/06/02 00:04:45;;;;;;;10.43;4.95;;;19.00;99.90;;;;;;5048741;28;20025;-78
2021/06/02 00:07:15;;;;;;;11.15;5.30;;;19.00;99.90;;;;;;5013224;28;20048;-79
2021/06/02 00:09:40;;;;;;;10.15;4.93;;;19.00;99.90;;;;;;5046411;28;20028;-78
2021/06/02 00:12:11;;;;;;;10.90;5.20;;;19.00;99.90;;;;;;5050236;28;20033;-78
2021/06/02 00:14:37;;;;;;;13.07;4.93;;;19.00;99.90;;;;;;5032822;28;20542;-78
2021/06/02 00:17:04;;;;;;;10.57;5.30;;;19.00;99.90;;;;;;5032134;28;20029;-78
2021/06/02 00:19:31;;;;;;;15.32;5.50;;;19.10;99.90;;;;;;5011177;28;20053;-78
2021/06/02 00:21:58;;;;;;;10.98;5.53;;;19.00;99.90;;;;;;5030729;28;20405;-79
2021/06/02 00:24:25;;;;;;;14.73;6.38;;;19.00;99.90;;;;;;5032625;28;20022;-79
2021/06/02 00:26:53;;;;;;;14.70;6.20;;;19.00;99.90;;;;;;5032661;28;20057;-78
2021/06/02 00:29:20;;;;;;;9.95;5.40;;;19.00;99.90;;;;;;5032636;28;20083;-79
2021/06/02 00:31:47;;;;;;;12.88;5.78;;;19.00;99.90;;;;;;5032228;28;20033;-79
2021/06/02 00:34:13;;;;;;;10.70;6.15;;;19.10;99.90;;;;;;5032165;28;20152;-78
2021/06/02 00:36:44;;;;;;;20.48;6.25;;;19.10;99.90;;;;;;5032204;28;20029;-78
2021/06/02 00:39:11;;;;;;;19.65;7.78;;;19.10;99.90;;;;;;5032480;28;20026;-78
2021/06/02 00:41:38;;;;;;;15.52;8.00;;;19.10;99.90;;;;;;5037764;28;20059;-78
2021/06/02 00:44:08;;;;;;;14.73;7.95;;;19.00;99.90;;;;;;5032244;28;20053;-79
2021/06/02 00:46:37;;;;;;;17.25;7.75;;;19.00;99.90;;;;;;5031973;28;20026;-78
2021/06/02 00:49:06;;;;;;;16.45;8.38;;;19.00;99.90;;;;;;5032280;28;20028;-78
2021/06/02 00:51:32;;;;;;;11.48;8.57;;;19.00;99.90;;;;;;5031946;28;20025;-76
2021/06/02 00:53:59;;;;;;;13.70;8.77;;;19.00;99.90;;;;;;5037929;28;20075;-78
2021/06/02 00:56:49;;;;;;;13.15;8.30;;;19.00;99.90;;;;;;5052372;28;20075;-78
2021/06/02 00:59:19;;;;;;;14.00;9.32;;;19.00;99.90;;;;;;5013392;28;20022;-78
2021/06/02 01:01:45;;;;;;;10.25;8.68;;;19.00;99.90;;;;;;5032295;28;20025;-78
2021/06/02 01:04:12;;;;;;;14.90;9.40;;;19.00;99.90;;;;;;5033429;28;20032;-76
2021/06/02 01:06:43;;;;;;;16.40;10.07;;;19.00;99.90;;;;;;5035641;28;20521;-78
2021/06/02 01:09:09;;;;;;;12.60;9.23;;;19.10;99.90;;;;;;5030798;28;20053;-78
2021/06/02 01:11:35;;;;;;;17.27;9.50;;;19.10;99.90;;;;;;5032281;28;20072;-79
2021/06/02 01:14:03;;;;;;;16.10;8.05;;;19.10;99.90;;;;;;5032277;28;20487;-79
2021/06/02 01:16:34;;;;;;;14.32;5.47;;;19.00;99.90;;;;;;5040261;28;20113;-76
2021/06/02 01:19:01;;;;;;;10.40;4.35;;;18.90;99.90;;;;;;5041030;28;20022;-78
2021/06/02 01:21:29;;;;;;;15.82;4.72;;;18.70;99.90;;;;;;5031788;28;20042;-78
2021/06/02 01:23:59;;;;;;;12.57;4.75;;;18.60;99.90;;;;;;5032071;28;20025;-78
2021/06/02 01:26:26;;;;;;;14.02;4.80;;;18.60;99.90;;;;;;5051605;28;20496;-78
2021/06/02 01:28:53;;;;;;;12.30;4.28;;;18.50;99.90;;;;;;5050576;28;20029;-78
2021/06/02 01:32:04;;;;;;;15.18;4.43;;;18.40;99.90;;;;;;5040084;28;20156;-78
2021/06/02 01:34:51;;;;;;;17.55;4.75;;;18.30;99.90;;;;;;5023964;28;20045;-78
2021/06/02 01:37:22;;;;;;;17.45;5.10;;;18.20;99.90;;;;;;5031993;28;20373;-78
2021/06/02 01:40:03;;;;;;;13.52;5.10;;;18.20;99.90;;;;;;5041657;28;20496;-78
2021/06/02 01:42:37;;;;;;;22.15;5.72;;;18.20;99.90;;;;;;5050311;28;20364;-78
2021/06/02 01:45:25;;;;;;;15.43;5.60;;;18.10;99.90;;;;;;5051751;28;20510;-78
2021/06/02 01:48:27;;;;;;;13.23;5.25;;;18.00;99.90;;;;;;5042519;28;20059;-79
2021/06/02 01:51:03;;;;;;;17.08;5.90;;;18.00;99.90;;;;;;5036887;28;20040;-78
2021/06/02 01:54:10;;;;;;;19.10;5.75;;;17.80;99.90;;;;;;5012209;28;20101;-78
2021/06/02 01:57:10;;;;;;;20.55;6.10;;;17.70;99.90;;;;;;5036005;28;20184;-78
2021/06/02 01:59:59;;;;;;;15.82;6.25;;;17.70;99.90;;;;;;5035155;28;20049;-78
2021/06/02 02:02:28;;;;;;;19.42;6.80;;;17.60;99.90;;;;;;5024464;28;20044;-78
2021/06/02 02:05:16;;;;;;;18.60;6.95;;;17.70;99.90;;;;;;5035730;28;20041;-78
2021/06/02 02:07:51;;;;;;;16.17;6.95;;;17.60;99.90;;;;;;5035160;28;20029;-78
2021/06/02 02:10:41;;;;;;;20.13;7.13;;;17.60;99.90;;;;;;5033937;28;20029;-78
2021/06/02 02:13:23;;;;;;;19.58;7.00;;;17.60;99.90;;;;;;5048385;28;20031;-78
2021/06/02 02:16:25;;;;;;;24.42;7.30;;;17.60;99.90;;;;;;5047133;28;20025;-79
2021/06/02 02:19:13;;;;;;;17.50;7.65;;;17.60;99.90;;;;;;5024362;28;20022;-78
2021/06/02 02:21:51;;;;;;;24.20;7.85;;;17.50;99.90;;;;;;5031175;28;20045;-78
2021/06/02 02:24:26;;;;;;;18.27;7.70;;;17.50;99.90;;;;;;5034789;28;20044;-78
2021/06/02 02:27:07;;;;;;;21.42;7.65;;;17.50;99.90;;;;;;5031845;28;20041;-78
2021/06/02 02:29:53;;;;;;;17.42;7.25;;;17.50;99.90;;;;;;5040127;28;20446;-78
2021/06/02 02:32:34;;;;;;;18.30;8.02;;;17.50;99.90;;;;;;5034721;28;20443;-77
2021/06/02 02:35:34;;;;;;;18.85;7.15;;;17.50;99.90;;;;;;5035498;28;20029;-77
2021/06/02 02:38:24;;;;;;;22.77;8.15;;;17.50;99.90;;;;;;5054581;28;20017;-78
2021/06/02 02:41:02;;;;;;;22.70;8.00;;;17.50;99.90;;;;;;5048791;28;20025;-78
2021/06/02 02:44:00;;;;;;;25.48;9.00;;;17.50;99.90;;;;;;5054488;28;20032;-78
2021/06/02 02:46:48;;;;;;;26.38;9.05;;;17.50;99.90;;;;;;5015648;28;20444;-78
2021/06/02 02:49:16;;;;;;;21.58;8.43;;;17.40;99.90;;;;;;5014417;28;20037;-78
2021/06/02 02:52:00;;;;;;;28.98;9.38;;;17.40;99.90;;;;;;5030381;28;20033;-78
2021/06/02 02:54:44;;;;;;;18.58;9.65;;;17.30;99.90;;;;;;5043885;28;20029;-78
2021/06/02 02:57:45;;;;;;;21.02;9.07;;;17.40;99.90;;;;;;5036013;28;20025;-78
2021/06/02 03:00:14;;;;;;;27.02;10.23;;;17.30;99.90;;;;;;5014447;28;20022;-78
2021/06/02 03:03:02;;;;;;;26.13;9.57;;;17.20;99.90;;;;;;5023145;28;20428;-78
2021/06/02 03:05:33;;;;;;;17.27;9.27;;;17.10;99.90;;;;;;5047499;28;20060;-79
2021/06/02 03:08:12;;;;;;;22.08;10.15;;;17.10;99.90;;;;;;5046787;28;20021;-78
2021/06/02 03:10:49;;;;;;;36.83;10.57;;;17.10;99.90;;;;;;5034136;28;20093;-78
2021/06/02 03:13:28;;;;;;;32.55;10.85;;;17.10;99.90;;;;;;5039860;28;20026;-78
2021/06/02 03:16:00;;;;;;;26.98;10.45;;;17.10;99.90;;;;;;5033896;28;20025;-78
2021/06/02 03:18:31;;;;;;;24.55;9.63;;;17.10;99.90;;;;;;5040311;28;20023;-78
2021/06/02 03:21:30;;;;;;;29.30;10.63;;;17.10;99.90;;;;;;5037147;28;20049;-78
2021/06/02 03:24:01;;;;;;;25.55;9.55;;;17.10;99.90;;;;;;5034113;28;20614;-78
2021/06/02 03:26:30;;;;;;;30.13;9.10;;;17.10;99.90;;;;;;5033704;28;20100;-78
2021/06/02 03:29:15;;;;;;;24.48;9.50;;;17.00;99.90;;;;;;5033608;28;20030;-78
2021/06/02 03:32:14;;;;;;;25.15;9.48;;;17.10;99.90;;;;;;5014044;28;20034;-78
2021/06/02 03:34:50;;;;;;;23.58;9.48;;;17.10;99.90;;;;;;5013979;28;20512;-78
2021/06/02 03:37:44;;;;;;;27.45;9.50;;;17.10;99.90;;;;;;5029328;28;20095;-79
2021/06/02 03:40:09;;;;;;;;;;;17.00;99.90;;;;;;5033956;28;20030;-78
2021/06/02 03:43:02;;;;;;;26.70;9.15;;;17.00;99.90;;;;;;5033199;28;19913;-78
2021/06/02 03:45:48;;;;;;;27.97;9.73;;;17.00;99.90;;;;;;5033263;28;20496;-78
2021/06/02 03:48:37;;;;;;;24.27;10.57;;;17.00;99.90;;;;;;5033440;28;20766;-78
2021/06/02 03:51:21;;;;;;;30.75;10.38;;;17.00;99.90;;;;;;5032734;28;20079;-78
2021/06/02 03:54:08;;;;;;;24.63;10.30;;;17.00;99.90;;;;;;5046660;28;20030;-79
2021/06/02 03:56:52;;;;;;;29.77;10.27;;;17.00;99.90;;;;;;5033228;28;20439;-78
2021/06/02 03:59:51;;;;;;;29.20;11.63;;;17.00;99.90;;;;;;5042402;28;20021;-78
2021/06/02 04:02:18;;;;;;;27.98;11.10;;;17.00;99.90;;;;;;5013365;28;20504;-78
2021/06/02 04:05:14;;;;;;;29.20;10.93;;;17.00;99.90;;;;;;5032557;28;20053;-78
2021/06/02 04:07:40;;;;;;;24.67;10.95;;;17.00;99.90;;;;;;5033152;28;20027;-78
2021/06/02 04:10:22;;;;;;;30.13;12.35;;;17.00;99.90;;;;;;5035781;28;20025;-78
2021/06/02 04:13:22;;;;;;;29.08;13.45;;;17.00;99.90;;;;;;5034264;28;20067;-77
2021/06/02 04:15:49;;;;;;;32.60;13.77;;;16.90;99.90;;;;;;5031370;28;20018;-78
2021/06/02 04:18:19;;;;;;;35.40;15.40;;;16.90;99.90;;;;;;5032801;28;20029;-78
2021/06/02 04:20:45;;;;;;;28.35;16.02;;;16.90;99.90;;;;;;5029933;28;20504;-78
2021/06/02 04:23:14;;;;;;;32.28;14.98;;;16.90;99.90;;;;;;5032860;28;20518;-78
2021/06/02 04:25:41;;;;;;;35.50;15.25;;;16.90;99.90;;;;;;5045284;28;20372;-78
2021/06/02 04:28:07;;;;;;;33.92;15.90;;;16.90;99.90;;;;;;5052467;28;20037;-78
2021/06/02 04:30:37;;;;;;;37.00;15.75;;;17.00;99.90;;;;;;5039211;28;20026;-78
2021/06/02 04:33:03;;;;;;;30.80;15.20;;;17.00;99.90;;;;;;5032528;28;20052;-78
2021/06/02 04:35:31;;;;;;;29.90;16.08;;;17.00;99.90;;;;;;5032666;28;20524;-78
2021/06/02 04:37:57;;;;;;;24.98;15.00;;;17.00;99.90;;;;;;5044783;28;20022;-78
2021/06/02 04:40:23;;;;;;;27.38;14.43;;;17.10;99.90;;;;;;5033582;28;20383;-78
2021/06/02 04:42:51;;;;;;;26.10;14.40;;;17.10;99.90;;;;;;5052654;28;20033;-79
2021/06/02 04:45:23;;;;;;;28.73;14.85;;;17.10;99.90;;;;;;5045718;28;20079;-78
2021/06/02 04:47:50;;;;;;;24.17;14.27;;;17.10;99.90;;;;;;5040438;28;20040;-78
2021/06/02 04:50:42;;;;;;;30.65;14.30;;;17.10;99.90;;;;;;5035849;28;20032;-79
2021/06/02 04:53:36;;;;;;;30.35;13.82;;;17.10;99.90;;;;;;5047321;28;20415;-78
2021/06/02 04:56:13;;;;;;;;;;;17.20;99.90;;;;;;5031793;28;20036;-78
2021/06/02 04:59:12;;;;;;;27.33;12.90;;;17.10;99.90;;;;;;5026225;28;19913;-79
2021/06/02 05:02:19;;;;;;;21.73;11.90;;;17.10;99.90;;;;;;5026959;28;20499;-80
2021/06/02 05:05:21;;;;;;;23.45;11.98;;;17.20;99.90;;;;;;5032671;28;20022;-78
2021/06/02 05:08:20;;;;;;;30.65;12.15;;;17.20;99.90;;;;;;5032492;28;20458;-78
2021/06/02 05:11:20;;;;;;;24.92;11.85;;;17.30;99.90;;;;;;5032258;28;20038;-78
2021/06/02 05:14:09;;;;;;;19.35;11.20;;;17.30;99.90;;;;;;5033186;28;20076;-78
2021/06/02 05:17:13;;;;;;;22.25;9.70;;;17.30;99.90;;;;;;5040745;28;20104;-78
2021/06/02 05:20:04;;;;;;;26.27;9.93;;;17.30;99.90;;;;;;5023899;28;20103;-78
2021/06/02 05:23:08;;;;;;;24.33;10.07;;;17.40;99.90;;;;;;5012471;28;20061;-76
2021/06/02 05:26:16;;;;;;;23.05;9.43;;;17.40;99.90;;;;;;5021516;28;20032;-78
2021/06/02 05:29:06;;;;;;;21.30;8.73;;;17.40;99.90;;;;;;5034013;28;20041;-78
2021/06/02 05:32:12;;;;;;;32.72;9.50;;;17.40;99.90;;;;;;5044369;28;20079;-78
2021/06/02 05:35:01;;;;;;;24.23;9.38;;;17.50;99.90;;;;;;5037179;28;20045;-79
2021/06/02 05:38:04;;;;;;;28.70;9.30;;;17.50;99.90;;;;;;5046617;28;20037;-78
2021/06/02 05:41:08;;;;;;;30.13;9.55;;;17.60;99.90;;;;;;5014585;28;20128;-78
2021/06/02 05:44:11;;;;;;;26.15;8.60;;;17.60;99.90;;;;;;5023745;28;20456;-78
2021/06/02 05:46:58;;;;;;;32.72;9.00;;;17.50;99.90;;;;;;5034156;28;20117;-79
2021/06/02 05:49:49;;;;;;;32.70;9.40;;;17.50;99.90;;;;;;5035686;28;20079;-78
2021/06/02 05:52:48;;;;;;;27.85;8.77;;;17.60;99.90;;;;;;5035507;28;20037;-78
2021/06/02 05:55:32;;;;;;;30.40;8.85;;;17.70;99.90;;;;;;5016483;28;20065;-79
2021/06/02 05:58:44;;;;;;;23.88;8.85;;;17.70;99.90;;;;;;5039446;28;20379;-81
2021/06/02 06:01:40;;;;;;;23.80;8.70;;;17.60;99.90;;;;;;5038138;28;20025;-78
2021/06/02 06:04:27;;;;;;;24.77;9.43;;;17.60;99.90;;;;;;5037536;28;20029;-78
2021/06/02 06:07:20;;;;;;;30.35;9.80;;;17.50;99.90;;;;;;5031174;28;20481;-78
2021/06/02 06:09:49;;;;;;;;;;;17.50;99.90;;;;;;5026654;28;20033;-80
2021/06/02 06:12:33;;;;;;;20.98;9.40;;;17.60;99.90;;;;;;5022480;28;19956;-78
2021/06/02 06:15:36;;;;;;;27.50;9.98;;;17.60;99.90;;;;;;5028354;28;20554;-78
2021/06/02 06:18:32;;;;;;;27.08;9.77;;;17.50;99.90;;;;;;5028293;28;20035;-78
2021/06/02 06:21:22;;;;;;;26.88;9.43;;;17.50;99.90;;;;;;5029987;28;20037;-78
2021/06/02 06:24:02;;;;;;;21.73;9.20;;;17.50;99.90;;;;;;5028372;28;20025;-78
2021/06/02 06:26:41;;;;;;;29.77;10.13;;;17.50;99.90;;;;;;5032451;28;20053;-78
2021/06/02 06:29:17;;;;;;;28.83;9.23;;;17.60;99.90;;;;;;5025811;28;20041;-78
2021/06/02 06:31:46;;;;;;;22.27;9.07;;;17.90;99.90;;;;;;5030933;28;20049;-77
2021/06/02 06:34:20;;;;;;;23.02;8.55;;;18.00;99.90;;;;;;5031921;28;20049;-83
2021/06/02 06:36:50;;;;;;;24.98;8.88;;;18.00;99.90;;;;;;5031266;28;20017;-79
2021/06/02 06:39:25;;;;;;;24.08;9.00;;;17.90;99.90;;;;;;5031778;28;20030;-78
2021/06/02 06:41:51;;;;;;;30.33;9.57;;;17.80;99.90;;;;;;5032493;28;20025;-78
2021/06/02 06:44:19;;;;;;;20.02;9.05;;;17.80;99.90;;;;;;5030074;28;20108;-78
2021/06/02 06:46:46;;;;;;;29.48;8.85;;;18.00;99.90;;;;;;5028635;28;20061;-77
2021/06/02 06:49:14;;;;;;;21.80;8.00;;;18.30;99.90;;;;;;5032124;28;20031;-77
2021/06/02 06:51:42;;;;;;;21.30;8.07;;;18.40;99.90;;;;;;5031273;28;20137;-78
2021/06/02 06:54:12;;;;;;;18.13;7.80;;;18.60;99.90;;;;;;5031842;28;20017;-78
2021/06/02 06:56:40;;;;;;;17.75;7.93;;;18.40;99.90;;;;;;5033446;28;20028;-78
2021/06/02 06:59:07;;;;;;;19.60;7.40;;;18.30;99.90;;;;;;5026208;28;20858;-78
2021/06/02 07:01:37;;;;;;;21.73;7.82;;;18.40;99.90;;;;;;5034117;28;20025;-78
2021/06/02 07:04:03;;;;;;;19.17;7.25;;;18.40;99.90;;;;;;5035001;28;20132;-77
2021/06/02 07:06:31;;;;;;;18.75;7.82;;;18.50;99.90;;;;;;5034110;28;20484;-80
2021/06/02 07:08:57;;;;;;;21.40;7.75;;;18.30;99.90;;;;;;5026739;28;20040;-77
2021/06/02 07:11:23;;;;;;;18.05;7.55;;;18.10;99.90;;;;;;5020474;28;20033;-77
2021/06/02 07:13:49;;;;;;;18.58;8.27;;;18.00;99.90;;;;;;5026664;28;20025;-79
2021/06/02 07:16:15;;;;;;;19.40;7.57;;;18.10;99.90;;;;;;5023808;28;20025;-80
2021/06/02 07:18:44;;;;;;;19.95;7.72;;;18.20;99.90;;;;;;5028066;28;20071;-79
2021/06/02 07:21:11;;;;;;;23.30;7.82;;;18.30;99.90;;;;;;5030243;28;20050;-81
2021/06/02 07:23:40;;;;;;;19.25;7.10;;;18.90;99.90;;;;;;5028806;28;20022;-81
2021/06/02 07:26:07;;;;;;;18.30;6.60;;;19.00;99.90;;;;;;5028685;28;20275;-81
2021/06/02 07:28:40;;;;;;;16.02;6.60;;;19.20;99.90;;;;;;5035270;28;20562;-83
2021/06/02 07:31:06;;;;;;;;;;;19.30;99.90;;;;;;5035910;28;20031;-83
2021/06/02 07:33:33;;;;;;;17.90;7.07;;;18.90;99.90;;;;;;5033234;28;20493;-82
2021/06/02 07:35:59;;;;;;;19.15;7.25;;;18.70;99.90;;;;;;5030915;28;20096;-81
2021/06/02 07:38:24;;;;;;;18.98;6.90;;;18.60;99.90;;;;;;5031751;28;20591;-82
2021/06/02 07:40:51;;;;;;;22.00;7.95;;;18.60;99.90;;;;;;5029635;28;20020;-83
2021/06/02 07:43:17;;;;;;;20.67;7.82;;;18.50;99.90;;;;;;5029548;28;20029;-81
2021/06/02 07:45:44;;;;;;;19.45;7.68;;;18.20;99.90;;;;;;5028776;28;20099;-80
2021/06/02 07:48:09;;;;;;;24.60;7.93;;;18.10;99.90;;;;;;5029528;28;20123;-79
2021/06/02 07:50:35;;;;;;;20.75;7.05;;;18.00;99.90;;;;;;5030440;28;20100;-80
2021/06/02 07:53:01;;;;;;;15.30;6.60;;;18.00;99.90;;;;;;5029950;28;20059;-80
2021/06/02 07:55:27;;;;;;;15.00;6.70;;;18.10;99.90;;;;;;5029156;28;20020;-80
2021/06/02 07:57:53;;;;;;;19.35;7.28;;;18.10;99.90;;;;;;5029912;28;20032;-81
2021/06/02 08:00:20;;;;;;;21.13;6.80;;;18.30;99.90;;;;;;5030781;28;20503;-81
2021/06/02 08:02:45;;;;;;;18.08;6.95;;;18.30;99.90;;;;;;5027333;28;20480;-81
2021/06/02 08:05:14;;;;;;;18.65;7.72;;;18.30;99.90;;;;;;5028108;28;20033;-80
2021/06/02 08:07:41;;;;;;;19.23;6.50;;;18.50;99.90;;;;;;5029349;28;20041;-80
2021/06/02 08:10:07;;;;;;;14.32;6.35;;;18.70;99.90;;;;;;5026084;28;20039;-76
2021/06/02 08:12:33;;;;;;;17.13;6.63;;;18.80;99.90;;;;;;5029775;28;20045;-76
2021/06/02 08:14:59;;;;;;;15.93;6.72;;;19.10;99.90;;;;;;5030007;28;20408;-76
2021/06/02 08:17:24;;;;;;;20.48;7.70;;;19.10;99.90;;;;;;5028824;28;20029;-76
2021/06/02 08:19:50;;;;;;;17.48;6.90;;;19.00;99.90;;;;;;5030673;28;20026;-76
2021/06/02 08:22:16;;;;;;;18.40;7.22;;;18.90;99.90;;;;;;5027721;28;20048;-81
2021/06/02 08:24:42;;;;;;;21.85;6.78;;;18.50;99.90;;;;;;5029639;28;20527;-80
2021/06/02 08:27:12;;;;;;;17.95;8.02;;;18.30;99.90;;;;;;5030704;28;20018;-77
2021/06/02 08:29:40;;;;;;;15.25;7.72;;;18.40;99.90;;;;;;5034182;28;20061;-78
2021/06/02 08:32:06;;;;;;;18.77;7.60;;;18.60;99.90;;;;;;5027631;28;20010;-77
2021/06/02 08:34:31;;;;;;;14.32;6.95;;;19.30;99.90;;;;;;5021759;28;20025;-76
2021/06/02 08:36:57;;;;;;;15.48;7.30;;;19.80;99.90;;;;;;5028839;28;20502;-76
2021/06/02 08:39:23;;;;;;;13.63;6.28;;;20.10;99.90;;;;;;5028136;28;20053;-74
2021/06/02 08:41:50;;;;;;;17.42;6.43;;;21.70;99.90;;;;;;5028195;28;20025;-78
2021/06/02 08:44:19;;;;;;;13.70;6.30;;;21.70;99.10;;;;;;5030168;28;20034;-77
2021/06/02 08:46:46;;;;;;;12.85;6.00;;;22.30;98.00;;;;;;5027494;28;20022;-77
2021/06/02 08:49:14;;;;;;;17.15;6.38;;;22.60;97.60;;;;;;5029616;28;20029;-77
2021/06/02 08:51:41;;;;;;;13.23;6.55;;;23.10;96.90;;;;;;5028935;28;20045;-79
2021/06/02 08:54:07;;;;;;;12.57;6.72;;;22.00;97.30;;;;;;5028175;28;20036;-77
2021/06/02 08:56:38;;;;;;;16.17;6.20;;;22.40;97.50;;;;;;5028758;28;20029;-78
2021/06/02 08:59:04;;;;;;;10.98;6.00;;;21.70;98.30;;;;;;5029288;28;20057;-78
2021/06/02 09:01:29;;;;;;;12.43;6.03;;;22.90;96.40;;;;;;5032619;28;20448;-79
2021/06/02 09:03:58;;;;;;;16.20;6.75;;;22.00;96.70;;;;;;5025636;28;20033;-78
2021/06/02 09:06:24;;;;;;;17.25;6.70;;;21.30;98.40;;;;;;5027213;28;20415;-77
2021/06/02 09:08:50;;;;;;;18.10;6.45;;;21.60;98.40;;;;;;5032332;28;20036;-79
2021/06/02 09:11:19;;;;;;;17.65;7.40;;;21.10;98.70;;;;;;5035575;28;20060;-79
2021/06/02 09:13:45;;;;;;;14.40;6.68;;;20.40;99.90;;;;;;5032855;28;20053;-76
2021/06/02 09:16:27;;;;;;;19.63;7.05;;;20.10;99.90;;;;;;5030551;28;20033;-79
2021/06/02 09:19:03;;;;;;;15.57;6.97;;;19.80;99.90;;;;;;5032028;28;20048;-81
2021/06/02 09:21:29;;;;;;;15.02;6.75;;;20.00;99.90;;;;;;5033211;28;20057;-78
2021/06/02 09:23:55;;;;;;;14.32;6.80;;;20.00;99.90;;;;;;5026338;28;20561;-78
2021/06/02 09:26:26;;;;;;;18.70;6.72;;;19.70;99.90;;;;;;5031936;28;20083;-78
2021/06/02 09:29:08;;;;;;;15.32;6.93;;;19.70;99.90;;;;;;5028020;28;20061;-81
2021/06/02 09:31:41;;;;;;;26.25;8.45;;;19.60;99.90;;;;;;5028979;28;20056;-76
2021/06/02 09:34:13;;;;;;;;;;;19.60;99.90;;;;;;5031856;28;20034;-78
2021/06/02 09:36:40;;;;;;;17.88;7.40;;;19.70;99.90;;;;;;5033034;28;19920;-78
2021/06/02 09:39:11;;;;;;;17.85;6.55;;;19.80;99.90;;;;;;5029806;28;20030;-80
2021/06/02 09:41:47;;;;;;;12.50;7.20;;;19.60;99.90;;;;;;5032039;28;20037;-79
2021/06/02 09:44:13;;;;;;;15.73;7.18;;;19.80;99.90;;;;;;5031148;28;20492;-78
2021/06/02 09:47:07;;;;;;;22.98;7.00;;;20.10;99.90;;;;;;5027970;28;20037;-77
2021/06/02 09:49:47;;;;;;;;;;;20.10;99.90;;;;;;5030230;28;20105;-77
2021/06/02 09:52:14;;;;;;;17.25;6.88;;;20.20;99.90;;;;;;5026679;28;19913;-77
2021/06/02 09:54:39;;;;;;;13.82;6.57;;;20.10;99.90;;;;;;5030800;28;20076;-78
2021/06/02 09:57:15;;;;;;;14.80;6.05;;;19.90;99.90;;;;;;5027000;28;20092;-76
2021/06/02 09:59:55;;;;;;;19.10;7.07;;;20.70;99.90;;;;;;5034630;28;20033;-78
2021/06/02 10:02:21;;;;;;;20.38;7.38;;;20.80;99.60;;;;;;5023654;28;20087;-76
2021/06/02 10:04:58;;;;;;;22.20;7.63;;;20.70;99.90;;;;;;5028935;28;20472;-76
2021/06/02 10:07:24;;;;;;;17.52;6.90;;;21.00;99.70;;;;;;5025940;28;20443;-76
2021/06/02 10:09:51;;;;;;;14.60;6.53;;;22.40;97.90;;;;;;5028704;28;20034;-76
2021/06/02 10:12:17;;;;;;;18.55;6.72;;;24.20;94.50;;;;;;5022244;28;20025;-79
2021/06/02 10:14:58;;;;;;;13.50;6.47;;;22.30;96.10;;;;;;5028000;28;20091;-76
2021/06/02 10:17:35;;;;;;;17.40;6.75;;;22.40;96.70;;;;;;5027826;28;20033;-76
2021/06/02 10:20:13;;;;;;;19.58;7.05;;;22.20;97.70;;;;;;5030487;28;20033;-76
2021/06/02 10:22:39;;;;;;;17.92;6.85;;;22.30;97.80;;;;;;5022844;28;20049;-77
2021/06/02 10:25:08;;;;;;;13.27;6.40;;;22.70;96.60;;;;;;5026578;28;20030;-76
2021/06/02 10:27:35;;;;;;;15.98;6.45;;;22.50;96.10;;;;;;5030800;28;20040;-76
2021/06/02 10:30:00;;;;;;;18.65;6.85;;;22.20;97.30;;;;;;5028264;28;20034;-82
2021/06/02 10:32:26;;;;;;;16.30;6.72;;;22.60;96.20;;;;;;5032273;28;20223;-77
2021/06/02 10:34:53;;;;;;;14.43;6.25;;;22.00;97.10;;;;;;5031609;28;20392;-77
2021/06/02 10:37:22;;;;;;;18.40;6.95;;;22.20;97.50;;;;;;5032177;28;20041;-78
2021/06/02 10:40:13;;;;;;;13.10;6.00;;;23.90;94.50;;;;;;5032900;28;20028;-77
2021/06/02 10:42:49;;;;;;;16.00;6.10;;;24.60;92.90;;;;;;5031419;28;20017;-77
2021/06/02 10:45:26;;;;;;;13.48;6.35;;;23.60;93.50;;;;;;5037302;28;20028;-77
2021/06/02 10:48:03;;;;;;;16.48;6.00;;;22.80;94.90;;;;;;5035157;28;20036;-81
2021/06/02 10:50:39;;;;;;;11.10;6.15;;;23.10;94.10;;;;;;5029144;28;20018;-80
2021/06/02 10:53:25;;;;;;;14.55;5.80;;;23.10;95.00;;;;;;5035188;28;20068;-76
2021/06/02 10:55:51;;;;;;;11.10;5.40;;;24.00;93.10;;;;;;5028797;28;20479;-76
2021/06/02 10:58:27;;;;;;;12.90;5.68;;;23.70;93.00;;;;;;5030095;28;20099;-78
2021/06/02 11:01:04;;;;;;;16.23;6.10;;;23.10;93.90;;;;;;5024712;28;20033;-76
2021/06/02 11:03:30;;;;;;;17.02;6.18;;;22.60;94.50;;;;;;5030504;28;20056;-77
2021/06/02 11:06:14;;;;;;;14.57;5.88;;;22.50;94.90;;;;;;5030234;28;20460;-76
2021/06/02 11:08:52;;;;;;;15.63;6.53;;;23.20;94.10;;;;;;5027458;28;20045;-79
2021/06/02 11:11:26;;;;;;;13.18;5.97;;;23.60;93.70;;;;;;5026509;28;20388;-78
2021/06/02 11:14:16;;;;;;;16.90;5.85;;;24.40;92.10;;;;;;5024899;28;20040;-79
2021/06/02 11:17:00;;;;;;;11.77;5.70;;;25.10;91.20;;;;;;5027445;28;20025;-78
2021/06/02 11:19:37;;;;;;;11.20;5.90;;;25.40;90.50;;;;;;5026231;28;20378;-79
2021/06/02 11:22:06;;;;;;;14.52;5.82;;;26.30;88.60;;;;;;5032169;28;20099;-79
2021/06/02 11:24:36;;;;;;;11.93;5.57;;;26.10;88.60;;;;;;5030042;28;20033;-79
2021/06/02 11:27:13;;;;;;;8.98;4.93;;;26.30;88.20;;;;;;5029038;28;20029;-79
2021/06/02 11:29:51;;;;;;;14.93;5.93;;;25.70;87.30;;;;;;5043724;28;20044;-80
2021/06/02 11:32:21;;;;;;;14.25;5.82;;;25.40;90.00;;;;;;5030376;28;20456;-79
2021/06/02 11:34:52;;;;;;;15.05;4.93;;;25.30;90.40;;;;;;5033070;28;20026;-81
2021/06/02 11:37:20;;;;;;;13.00;5.32;;;25.30;90.00;;;;;;5029015;28;20065;-80
2021/06/02 11:39:48;;;;;;;17.52;5.93;;;24.60;91.10;;;;;;5033961;28;20017;-81
2021/06/02 11:42:39;;;;;;;10.00;5.20;;;25.00;90.60;;;;;;5025905;28;20018;-79
2021/06/02 11:45:15;;;;;;;12.40;5.18;;;25.00;90.50;;;;;;5029269;28;20029;-79
2021/06/02 11:48:02;;;;;;;9.23;4.93;;;24.70;90.70;;;;;;5034227;28;20036;-80
2021/06/02 11:50:27;;;;;;;10.15;5.10;;;24.50;91.10;;;;;;5024416;28;20025;-79
2021/06/02 11:53:01;;;;;;;15.82;5.10;;;24.70;90.60;;;;;;5028912;28;20088;-80
2021/06/02 11:55:28;;;;;;;13.02;5.40;;;24.70;90.90;;;;;;5029315;28;20028;-79
2021/06/02 11:57:55;;;;;;;12.40;5.47;;;24.40;91.40;;;;;;5034114;28;20017;-79
2021/06/02 12:00:28;;;;;;;16.42;5.00;;;24.80;90.60;;;;;;5029696;28;20396;-79
2021/06/02 12:03:11;;;;;;;13.25;5.10;;;24.60;90.80;;;;;;5024603;28;20112;-79
2021/06/02 12:05:41;;;;;;;20.63;5.05;;;24.30;91.70;;;;;;5034828;28;20025;-80
2021/06/02 12:08:12;;;;;;;17.20;5.15;;;24.70;91.80;;;;;;5036962;28;20033;-79
2021/06/02 12:10:47;;;;;;;9.90;4.75;;;24.80;90.40;;;;;;5032377;28;20032;-80
2021/06/02 12:13:36;;;;;;;14.98;5.15;;;24.60;91.20;;;;;;5029267;28;20502;-81
2021/06/02 12:16:05;;;;;;;11.98;4.90;;;25.30;90.60;;;;;;5050446;28;20053;-81
2021/06/02 12:18:31;;;;;;;13.85;4.88;;;24.30;90.50;;;;;;5029157;28;20025;-81
2021/06/02 12:21:28;;;;;;;20.83;5.20;;;24.10;91.70;;;;;;5031975;28;20512;-80
2021/06/02 12:23:54;;;;;;;13.60;5.28;;;24.60;90.90;;;;;;5031652;28;20033;-80
2021/06/02 12:26:26;;;;;;;14.68;4.78;;;24.20;91.20;;;;;;5034966;28;20029;-81
2021/06/02 12:28:53;;;;;;;11.30;5.18;;;23.60;92.00;;;;;;5034742;28;20036;-80
2021/06/02 12:31:53;;;;;;;15.23;5.10;;;23.30;92.60;;;;;;5030030;28;20388;-80
2021/06/02 12:34:24;;;;;;;12.00;4.50;;;23.90;92.20;;;;;;5029023;28;20495;-79
2021/06/02 12:36:55;;;;;;;14.52;4.88;;;23.40;92.70;;;;;;5033508;28;20021;-81
2021/06/02 12:39:29;;;;;;;13.00;4.40;;;23.20;92.90;;;;;;5030665;28;20029;-80
2021/06/02 12:41:56;;;;;;;15.57;4.72;;;23.40;92.10;;;;;;5026563;28;20028;-79
2021/06/02 12:44:23;;;;;;;10.77;4.55;;;23.60;92.80;;;;;;5035145;28;20144;-79
2021/06/02 12:47:00;;;;;;;9.00;4.03;;;23.60;92.70;;;;;;5030319;28;20108;-81
2021/06/02 12:49:26;;;;;;;11.80;4.45;;;23.60;91.40;;;;;;5031530;28;20501;-80
2021/06/02 12:51:56;;;;;;;11.13;4.50;;;23.60;92.50;;;;;;5033040;28;20112;-80
2021/06/02 12:54:30;;;;;;;12.02;4.60;;;24.20;91.90;;;;;;5029048;28;20121;-80
2021/06/02 12:56:57;;;;;;;10.18;4.57;;;24.40;91.20;;;;;;5024850;28;20507;-81
2021/06/02 12:59:34;;;;;;;11.07;4.03;;;24.40;90.80;;;;;;5032274;28;20183;-80
2021/06/02 13:02:05;;;;;;;11.60;3.92;;;24.20;90.80;;;;;;5028339;28;20028;-80
2021/06/02 13:04:33;;;;;;;11.02;4.47;;;23.40;92.00;;;;;;5047021;28;20484;-80
2021/06/02 13:06:59;;;;;;;11.40;4.57;;;23.30;92.10;;;;;;5034442;28;20029;-81
2021/06/02 13:09:26;;;;;;;13.02;4.35;;;23.10;92.70;;;;;;5032309;28;20057;-80
2021/06/02 13:11:53;;;;;;;13.43;4.47;;;23.00;92.60;;;;;;5031814;28;20087;-80
2021/06/02 13:14:22;;;;;;;12.52;4.93;;;22.80;93.00;;;;;;5031146;28;20025;-80
2021/06/02 13:16:54;;;;;;;13.27;4.53;;;22.70;93.20;;;;;;5030448;28;20037;-80
2021/06/02 13:19:41;;;;;;;16.60;4.43;;;23.30;92.70;;;;;;5029054;28;20060;-77
2021/06/02 13:22:18;;;;;;;19.13;4.47;;;23.00;92.40;;;;;;5030456;28;20057;-79